createdAt,value
2022-12-26T00:00:22.866Z,82.73
2022-12-26T00:02:53.531Z,82.65
2022-12-26T00:05:23.960Z,83.02
2022-12-26T00:07:54.380Z,82.70
2022-12-26T00:10:27.411Z,82.61
2022-12-26T00:13:38.412Z,82.73
2022-12-26T00:15:48.403Z,82.92
2022-12-26T00:18:18.861Z,82.72
2022-12-26T00:20:50.736Z,82.90
2022-12-26T00:23:21.262Z,83.28
2022-12-26T00:25:54.764Z,83.41
2022-12-26T00:28:25.163Z,83.73
2022-12-26T00:30:55.877Z,83.83
2022-12-26T00:33:26.286Z,84.39
2022-12-26T00:35:56.650Z,84.53
2022-12-26T00:38:27.029Z,84.69
2022-12-26T00:41:00.295Z,84.79
2022-12-26T00:43:30.740Z,84.84
2022-12-26T00:46:01.857Z,84.84
2022-12-26T00:48:32.488Z,84.36
2022-12-26T00:51:03.773Z,84.33
2022-12-26T00:53:34.365Z,83.80
2022-12-26T00:56:07.828Z,83.16
2022-12-26T00:58:38.423Z,82.52
2022-12-26T01:01:12.482Z,82.06
2022-12-26T01:03:43.562Z,81.40
2022-12-26T01:06:13.747Z,80.81
2022-12-26T01:08:44.386Z,80.70
2022-12-26T01:11:39.188Z,80.72
2022-12-26T01:14:12.329Z,80.11
2022-12-26T01:16:44.442Z,79.99
2022-12-26T01:19:16.160Z,80.06
2022-12-26T01:21:46.508Z,79.51
2022-12-26T01:24:16.867Z,79.76
2022-12-26T01:26:49.874Z,79.76
2022-12-26T01:29:20.270Z,79.54
2022-12-26T01:31:50.693Z,79.40
2022-12-26T01:34:21.167Z,79.27
2022-12-26T01:36:51.585Z,79.11
2022-12-26T01:39:22.170Z,79.50
2022-12-26T01:41:55.125Z,79.44
2022-12-26T01:45:03.603Z,79.62
2022-12-26T01:47:50.046Z,79.78
2022-12-26T01:50:36.694Z,79.93
2022-12-26T01:53:15.487Z,79.96
2022-12-26T01:55:50.192Z,80.08
2022-12-26T01:58:28.329Z,80.40
2022-12-26T02:00:58.962Z,80.52
2022-12-26T02:03:42.369Z,80.77
2022-12-26T02:06:16.960Z,81.12
2022-12-26T02:08:49.392Z,80.90
2022-12-26T02:11:24.869Z,80.99
2022-12-26T02:13:59.475Z,81.06
2022-12-26T02:16:30.204Z,80.98
2022-12-26T02:19:00.679Z,81.12
2022-12-26T02:22:05.319Z,81.34
2022-12-26T02:25:16.701Z,81.00
2022-12-26T02:28:04.326Z,80.88
2022-12-26T02:30:45.957Z,81.45
2022-12-26T02:33:35.056Z,81.76
2022-12-26T02:36:40.155Z,81.35
2022-12-26T02:39:44.689Z,81.00
2022-12-26T02:42:30.240Z,81.20
2022-12-26T02:45:26.502Z,81.29
2022-12-26T02:48:10.792Z,81.25
2022-12-26T02:51:10.979Z,81.15
2022-12-26T02:54:03.935Z,81.14
2022-12-26T02:56:51.260Z,81.24
2022-12-26T02:59:56.149Z,80.89
2022-12-26T03:02:46.859Z,80.80
2022-12-26T03:05:40.142Z,80.91
2022-12-26T03:08:31.541Z,80.64
2022-12-26T03:11:14.980Z,80.44
2022-12-26T03:13:48.235Z,80.49
2022-12-26T03:16:33.168Z,80.57
2022-12-26T03:19:08.585Z,80.51
2022-12-26T03:21:46.558Z,80.55
2022-12-26T03:24:20.274Z,80.12
2022-12-26T03:26:53.455Z,79.86
2022-12-26T03:29:38.497Z,79.37
2022-12-26T03:32:13.441Z,79.16
2022-12-26T03:34:47.129Z,79.21
2022-12-26T03:37:48.604Z,78.94
2022-12-26T03:40:56.542Z,79.05
2022-12-26T03:43:55.298Z,79.18
2022-12-26T03:46:53.048Z,79.19
2022-12-26T03:49:42.742Z,79.40
2022-12-26T03:52:36.135Z,80.04
2022-12-26T03:55:29.070Z,79.70
2022-12-26T03:58:23.272Z,79.36
2022-12-26T04:01:09.808Z,79.16
2022-12-26T04:03:55.432Z,79.56
2022-12-26T04:06:43.516Z,79.73
2022-12-26T04:09:32.875Z,79.95
2022-12-26T04:12:19.314Z,80.37
2022-12-26T04:15:08.677Z,80.72
2022-12-26T04:18:02.127Z,80.87
2022-12-26T04:20:44.084Z,80.92
2022-12-26T04:23:32.469Z,81.36
2022-12-26T04:26:22.929Z,81.28
2022-12-26T04:29:09.098Z,81.67
2022-12-26T04:32:00.911Z,82.02
2022-12-26T04:34:55.011Z,82.24
2022-12-26T04:37:41.714Z,82.30
2022-12-26T04:40:31.829Z,82.52
2022-12-26T04:43:47.530Z,82.33
2022-12-26T04:46:08.883Z,82.27
2022-12-26T04:48:59.612Z,82.25
2022-12-26T04:51:29.952Z,82.05
2022-12-26T04:54:00.377Z,82.03
2022-12-26T04:56:30.822Z,81.85
2022-12-26T04:59:01.227Z,81.60
2022-12-26T05:01:46.731Z,81.40
2022-12-26T05:04:30.748Z,81.51
2022-12-26T05:07:14.168Z,81.85
2022-12-26T05:09:44.567Z,81.95
2022-12-26T05:12:15.043Z,81.75
2022-12-26T05:14:45.723Z,81.69
2022-12-26T05:17:31.179Z,81.44
2022-12-26T05:20:13.927Z,81.63
2022-12-26T05:23:00.115Z,81.40
2022-12-26T05:25:50.248Z,81.04
2022-12-26T05:28:33.605Z,81.10
2022-12-26T05:31:05.325Z,81.35
2022-12-26T05:33:50.325Z,81.30
2022-12-26T05:36:23.706Z,81.07
2022-12-26T05:38:56.262Z,80.81
2022-12-26T05:41:26.985Z,80.75
2022-12-26T05:43:57.415Z,80.84
2022-12-26T05:46:27.958Z,81.02
2022-12-26T05:49:01.088Z,81.03
2022-12-26T05:51:31.482Z,80.67
2022-12-26T05:54:02.406Z,80.56
2022-12-26T05:56:33.152Z,80.33
2022-12-26T05:59:04.613Z,80.50
2022-12-26T06:01:35.236Z,80.90
2022-12-26T06:04:08.281Z,80.88
2022-12-26T06:06:38.731Z,80.84
2022-12-26T06:09:09.307Z,80.77
2022-12-26T06:11:46.825Z,80.85
2022-12-26T06:14:19.399Z,80.75
2022-12-26T06:16:49.883Z,80.51
2022-12-26T06:19:22.866Z,80.13
2022-12-26T06:21:53.327Z,80.00
2022-12-26T06:24:23.930Z,79.86
2022-12-26T06:26:54.293Z,80.04
2022-12-26T06:29:24.889Z,80.34
2022-12-26T06:31:55.351Z,80.63
2022-12-26T06:34:28.714Z,80.65
2022-12-26T06:36:59.175Z,81.07
2022-12-26T06:39:29.519Z,81.46
2022-12-26T06:41:59.921Z,81.84
2022-12-26T06:44:30.722Z,81.78
2022-12-26T06:47:01.167Z,82.26
2022-12-26T06:49:34.203Z,82.45
2022-12-26T06:52:04.628Z,82.79
2022-12-26T06:54:35.254Z,82.81
2022-12-26T06:57:05.715Z,82.77
2022-12-26T06:59:36.322Z,83.03
2022-12-26T07:02:06.867Z,82.67
2022-12-26T07:04:39.965Z,82.54
2022-12-26T07:07:10.416Z,82.26
2022-12-26T07:09:40.835Z,81.89
2022-12-26T07:12:11.306Z,81.67
2022-12-26T07:14:42.066Z,81.55
2022-12-26T07:17:13.568Z,81.45
2022-12-26T07:19:46.599Z,81.38
2022-12-26T07:22:17.046Z,81.14
2022-12-26T07:24:47.385Z,81.25
2022-12-26T07:27:17.806Z,81.15
2022-12-26T07:29:50.954Z,81.32
2022-12-26T07:32:22.424Z,81.75
2022-12-26T07:34:55.652Z,81.95
2022-12-26T07:37:25.987Z,82.33
2022-12-26T07:39:59.208Z,82.50
2022-12-26T07:42:29.930Z,82.27
2022-12-26T07:45:02.088Z,81.89
2022-12-26T07:47:32.515Z,81.71
2022-12-26T07:50:05.591Z,82.13
2022-12-26T07:52:35.955Z,81.82
2022-12-26T07:55:07.001Z,81.46
2022-12-26T07:57:52.294Z,81.02
2022-12-26T08:00:23.530Z,80.36
2022-12-26T08:02:58.574Z,79.98
2022-12-26T08:05:35.939Z,79.53
2022-12-26T08:08:06.792Z,78.58
2022-12-26T08:10:37.254Z,78.58
2022-12-26T08:13:07.769Z,78.43
2022-12-26T08:15:41.090Z,78.12
2022-12-26T08:18:11.723Z,78.50
2022-12-26T08:20:44.705Z,78.30
2022-12-26T08:23:15.061Z,78.06
2022-12-26T08:25:45.623Z,77.77
2022-12-26T08:28:15.992Z,78.09
2022-12-26T08:30:46.891Z,77.61
2022-12-26T08:33:17.327Z,77.00
2022-12-26T08:35:50.415Z,77.47
2022-12-26T08:38:20.824Z,77.17
2022-12-26T08:40:58.454Z,76.63
2022-12-26T08:43:53.198Z,76.22
2022-12-26T08:46:20.262Z,75.87
2022-12-26T08:48:51.274Z,75.64
2022-12-26T08:51:25.859Z,75.34
2022-12-26T08:53:58.217Z,74.71
2022-12-26T08:56:30.349Z,74.28
2022-12-26T08:59:00.913Z,73.96
2022-12-26T09:01:33.740Z,73.80
2022-12-26T09:04:07.488Z,73.89
2022-12-26T09:06:42.093Z,72.61
2022-12-26T09:09:14.691Z,71.78
2022-12-26T09:11:46.108Z,71.21
2022-12-26T09:14:16.579Z,70.86
2022-12-26T09:16:50.889Z,70.46
2022-12-26T09:19:23.454Z,70.08
2022-12-26T09:22:16.471Z,70.08
2022-12-26T09:24:47.356Z,69.57
2022-12-26T09:27:17.703Z,69.94
2022-12-26T09:29:48.217Z,70.16
2022-12-26T09:32:18.775Z,69.90
2022-12-26T09:34:51.540Z,71.17
2022-12-26T09:37:24.588Z,71.77
2022-12-26T09:39:55.173Z,72.09
2022-12-26T09:42:36.721Z,71.78
2022-12-26T09:45:16.395Z,72.15
2022-12-26T09:48:00.945Z,72.85
2022-12-26T09:50:42.692Z,73.21
2022-12-26T09:53:22.777Z,73.71
2022-12-26T09:55:58.827Z,73.74
2022-12-26T09:58:33.532Z,74.44
2022-12-26T10:01:11.004Z,74.87
2022-12-26T10:03:44.286Z,74.81
2022-12-26T10:06:19.594Z,75.08
2022-12-26T10:09:13.485Z,76.06
2022-12-26T10:12:04.171Z,76.21
2022-12-26T10:14:46.786Z,76.83
2022-12-26T10:17:28.122Z,77.01
2022-12-26T10:20:22.811Z,76.89
2022-12-26T10:23:34.393Z,76.98
2022-12-26T10:26:15.813Z,76.79
2022-12-26T10:28:50.842Z,77.18
2022-12-26T10:31:28.014Z,78.14
2022-12-26T10:34:09.098Z,78.24
2022-12-26T10:36:44.690Z,78.73
2022-12-26T10:39:24.313Z,79.33
2022-12-26T10:42:02.041Z,79.29
2022-12-26T10:44:32.646Z,79.63
2022-12-26T10:47:27.095Z,79.25
2022-12-26T10:50:00.253Z,80.00
2022-12-26T10:52:37.078Z,80.72
2022-12-26T10:55:29.207Z,81.13
2022-12-26T10:58:08.477Z,81.16
2022-12-26T11:00:38.959Z,81.68
2022-12-26T11:03:12.751Z,80.73
2022-12-26T11:08:43.791Z,80.69
2022-12-26T11:11:23.583Z,80.04
2022-12-26T11:14:02.596Z,79.83
2022-12-26T11:16:41.699Z,79.84
2022-12-26T11:19:30.911Z,80.60
2022-12-26T11:22:25.808Z,80.05
2022-12-26T11:25:23.106Z,81.21
2022-12-26T11:27:56.076Z,81.72
2022-12-26T11:30:34.187Z,81.85
2022-12-26T11:33:30.995Z,83.04
2022-12-26T11:36:14.359Z,83.51
2022-12-26T11:38:54.552Z,84.50
2022-12-26T11:41:40.397Z,84.55
2022-12-26T11:44:32.560Z,84.85
2022-12-26T11:47:15.578Z,84.76
2022-12-26T11:49:56.807Z,84.93
2022-12-26T11:52:40.353Z,84.41
2022-12-26T11:55:33.982Z,84.30
2022-12-26T11:58:19.228Z,83.66
2022-12-26T12:01:15.895Z,83.75
2022-12-26T12:03:51.719Z,84.30
2022-12-26T12:06:42.344Z,84.87
2022-12-26T12:09:26.247Z,84.68
2022-12-26T12:12:04.580Z,84.23
2022-12-26T12:15:00.991Z,84.19
2022-12-26T12:17:41.607Z,83.98
2022-12-26T12:20:38.771Z,83.79
2022-12-26T12:23:44.777Z,84.64
2022-12-26T12:26:21.336Z,84.78
2022-12-26T12:29:26.627Z,86.25
2022-12-26T12:32:11.922Z,86.86
2022-12-26T12:35:03.276Z,88.69
2022-12-26T12:37:55.852Z,89.79
2022-12-26T12:40:37.023Z,90.36
2022-12-26T12:43:19.316Z,91.39
2022-12-26T12:46:08.691Z,95.62
2022-12-26T12:49:02.395Z,99.02
2022-12-26T12:51:43.074Z,100.00
2022-12-26T12:54:43.977Z,100.00
2022-12-26T12:57:24.111Z,97.59
2022-12-26T13:00:07.400Z,96.25
2022-12-26T13:02:44.038Z,97.45
2022-12-26T13:05:32.416Z,98.46
2022-12-26T13:08:10.418Z,98.76
2022-12-26T13:10:54.071Z,100.00
2022-12-26T13:13:31.399Z,99.97
2022-12-26T13:16:06.750Z,99.05
2022-12-26T13:18:43.646Z,98.16
2022-12-26T13:21:16.971Z,96.51
2022-12-26T13:24:05.869Z,94.93
2022-12-26T13:26:41.990Z,95.10
2022-12-26T13:29:19.372Z,93.57
2022-12-26T13:31:50.133Z,94.65
2022-12-26T13:34:23.535Z,96.64
2022-12-26T13:36:55.904Z,97.99
2022-12-26T13:39:43.862Z,99.25
2022-12-26T13:42:47.756Z,99.56
2022-12-26T13:45:50.977Z,99.32
2022-12-26T13:49:09.288Z,98.12
2022-12-26T13:51:55.520Z,99.47
2022-12-26T13:54:29.143Z,98.03
2022-12-26T13:57:40.135Z,96.84
2022-12-26T14:00:21.777Z,95.24
2022-12-26T14:03:26.014Z,95.47
2022-12-26T14:06:31.651Z,95.28
2022-12-26T14:09:24.305Z,94.69
2022-12-26T14:12:42.448Z,94.48
2022-12-26T14:15:40.958Z,94.58
2022-12-26T14:18:35.685Z,94.31
2022-12-26T14:21:35.524Z,94.98
2022-12-26T14:24:33.170Z,95.98
2022-12-26T14:27:37.640Z,96.94
2022-12-26T14:30:25.747Z,97.85
2022-12-26T14:33:23.172Z,99.77
2022-12-26T14:36:20.930Z,100.00
2022-12-26T14:39:03.503Z,100.00
2022-12-26T14:42:38.701Z,100.00
2022-12-26T14:45:44.275Z,100.00
2022-12-26T14:48:51.576Z,100.00
2022-12-26T14:51:40.444Z,100.00
2022-12-26T14:54:50.786Z,100.00
2022-12-26T14:57:49.442Z,100.00
2022-12-26T15:00:36.177Z,100.00
2022-12-26T15:03:49.212Z,100.00
2022-12-26T15:07:00.758Z,100.00
2022-12-26T15:10:05.388Z,100.00
2022-12-26T15:13:28.436Z,100.00
2022-12-26T15:16:20.158Z,100.00
2022-12-26T15:19:54.124Z,100.00
2022-12-26T15:22:47.156Z,100.00
2022-12-26T15:26:01.106Z,100.00
2022-12-26T15:29:16.336Z,100.00
2022-12-26T15:31:59.293Z,100.00
2022-12-26T15:35:02.551Z,100.00
2022-12-26T15:37:56.526Z,100.00
2022-12-26T15:40:31.545Z,100.00
2022-12-26T15:43:28.779Z,100.00
2022-12-26T15:46:11.067Z,100.00
2022-12-26T15:49:02.744Z,100.00
2022-12-26T15:51:56.148Z,100.00
2022-12-26T15:54:52.672Z,100.00
2022-12-26T15:57:32.327Z,100.00
2022-12-26T16:00:18.317Z,100.00
2022-12-26T16:02:59.488Z,100.00
2022-12-26T16:05:42.403Z,100.00
2022-12-26T16:08:57.574Z,100.00
2022-12-26T16:11:33.340Z,100.00
2022-12-26T16:14:07.237Z,100.00
2022-12-26T16:16:40.140Z,100.00
2022-12-26T16:19:22.882Z,99.60
2022-12-26T16:22:11.097Z,99.16
2022-12-26T16:24:46.506Z,98.38
2022-12-26T16:27:21.663Z,97.79
2022-12-26T16:29:56.104Z,97.76
2022-12-26T16:32:32.902Z,97.20
2022-12-26T16:35:03.685Z,97.14
2022-12-26T16:37:34.936Z,96.59
2022-12-26T16:40:22.017Z,95.99
2022-12-26T16:43:03.492Z,95.29
2022-12-26T16:45:37.193Z,94.90
2022-12-26T16:48:11.291Z,94.88
2022-12-26T16:50:51.341Z,94.69
2022-12-26T16:53:26.810Z,93.65
2022-12-26T16:56:20.167Z,93.16
2022-12-26T16:59:27.985Z,92.38
2022-12-26T17:02:01.407Z,92.35
2022-12-26T17:04:36.374Z,91.98
2022-12-26T17:07:11.418Z,91.74
2022-12-26T17:09:52.646Z,92.31
2022-12-26T17:12:29.208Z,91.92
2022-12-26T17:15:04.668Z,92.33
2022-12-26T17:17:40.785Z,93.12
2022-12-26T17:20:44.737Z,93.55
2022-12-26T17:23:40.645Z,94.84
2022-12-26T17:26:31.403Z,95.36
2022-12-26T17:29:10.536Z,97.02
2022-12-26T17:31:46.083Z,98.24
2022-12-26T17:34:29.344Z,98.91
2022-12-26T17:37:18.998Z,98.08
2022-12-26T17:40:03.268Z,100.00
2022-12-26T17:42:47.978Z,100.00
2022-12-26T17:45:24.734Z,100.00
2022-12-26T17:47:59.544Z,99.93
2022-12-26T17:50:36.375Z,100.00
2022-12-26T17:53:30.427Z,100.00
2022-12-26T17:56:14.091Z,100.00
2022-12-26T17:58:45.030Z,100.00
2022-12-26T18:01:21.871Z,98.43
2022-12-26T18:04:03.738Z,99.77
2022-12-26T18:06:37.216Z,99.30
2022-12-26T18:09:07.697Z,97.88
2022-12-26T18:11:39.206Z,99.48
2022-12-26T18:14:12.369Z,100.00
2022-12-26T18:16:48.233Z,100.00
2022-12-26T18:19:22.990Z,100.00
2022-12-26T18:21:53.357Z,100.00
2022-12-26T18:24:23.924Z,100.00
2022-12-26T18:27:04.670Z,100.00
2022-12-26T18:29:40.804Z,100.00
2022-12-26T18:32:31.289Z,100.00
2022-12-26T18:35:02.875Z,100.00
2022-12-26T18:37:36.552Z,100.00
2022-12-26T18:40:13.395Z,100.00
2022-12-26T18:42:43.769Z,100.00
2022-12-26T18:45:19.434Z,100.00
2022-12-26T18:47:55.595Z,100.00
2022-12-26T18:50:29.980Z,100.00
2022-12-26T18:53:04.249Z,100.00
2022-12-26T18:55:37.496Z,100.00
2022-12-26T18:58:09.605Z,100.00
2022-12-26T19:00:39.915Z,100.00
2022-12-26T19:03:15.812Z,100.00
2022-12-26T19:05:46.261Z,100.00
2022-12-26T19:08:16.892Z,100.00
2022-12-26T19:10:51.866Z,100.00
2022-12-26T19:13:26.379Z,99.65
2022-12-26T19:16:01.651Z,98.42
2022-12-26T19:18:34.835Z,98.55
2022-12-26T19:21:05.175Z,97.92
2022-12-26T19:23:37.526Z,98.38
2022-12-26T19:26:23.164Z,98.56
2022-12-26T19:28:58.315Z,97.88
2022-12-26T19:31:33.095Z,97.34
2022-12-26T19:34:21.235Z,98.46
2022-12-26T19:36:54.740Z,98.44
2022-12-26T19:39:25.167Z,98.37
2022-12-26T19:41:56.071Z,98.47
2022-12-26T19:44:49.569Z,100.00
2022-12-26T19:47:24.572Z,100.00
2022-12-26T19:50:04.682Z,100.00
2022-12-26T19:52:41.289Z,100.00
2022-12-26T19:55:18.448Z,100.00
2022-12-26T19:57:53.666Z,100.00
2022-12-26T20:00:37.515Z,100.00
2022-12-26T20:03:13.732Z,100.00
2022-12-26T20:05:49.120Z,100.00
2022-12-26T20:08:21.999Z,100.00
2022-12-26T20:11:00.962Z,100.00
2022-12-26T20:13:34.608Z,100.00
2022-12-26T20:16:46.022Z,100.00
2022-12-26T20:19:11.270Z,100.00
2022-12-26T20:21:51.572Z,100.00
2022-12-26T20:24:23.183Z,100.00
2022-12-26T20:26:57.826Z,100.00
2022-12-26T20:29:32.936Z,100.00
2022-12-26T20:32:06.668Z,100.00
2022-12-26T20:34:37.055Z,100.00
2022-12-26T20:37:11.561Z,100.00
2022-12-26T20:40:04.454Z,100.00
2022-12-26T20:42:33.881Z,100.00
2022-12-26T20:45:09.417Z,100.00
2022-12-26T20:47:42.907Z,100.00
2022-12-26T20:50:18.685Z,100.00
2022-12-26T20:53:00.059Z,100.00
2022-12-26T20:55:36.776Z,100.00
2022-12-26T20:58:13.218Z,100.00
2022-12-26T21:00:50.521Z,100.00
2022-12-26T21:03:31.692Z,100.00
2022-12-26T21:06:14.408Z,100.00
2022-12-26T21:08:59.451Z,100.00
2022-12-26T21:11:42.697Z,100.00
2022-12-26T21:14:23.108Z,100.00
2022-12-26T21:16:59.264Z,100.00
2022-12-26T21:19:39.677Z,100.00
2022-12-26T21:22:13.528Z,100.00
2022-12-26T21:24:46.827Z,100.00
2022-12-26T21:27:17.449Z,100.00
2022-12-26T21:29:47.898Z,100.00
2022-12-26T21:32:19.451Z,100.00
2022-12-26T21:34:49.820Z,100.00
2022-12-26T21:37:32.630Z,100.00
2022-12-26T21:40:05.627Z,100.00
2022-12-26T21:42:35.994Z,100.00
2022-12-26T21:45:06.880Z,100.00
2022-12-26T21:47:37.408Z,100.00
2022-12-26T21:50:09.246Z,100.00
2022-12-26T21:52:39.606Z,100.00
2022-12-26T21:55:26.566Z,100.00
2022-12-26T21:57:57.091Z,100.00
2022-12-26T22:00:27.827Z,100.00
2022-12-26T22:03:10.659Z,100.00
2022-12-26T22:05:43.151Z,100.00
2022-12-26T22:08:14.174Z,100.00
2022-12-26T22:11:02.420Z,100.00
2022-12-26T22:13:33.659Z,100.00
2022-12-26T22:16:10.118Z,100.00
2022-12-26T22:18:46.239Z,100.00
2022-12-26T22:21:18.661Z,100.00
2022-12-26T22:23:50.748Z,100.00
2022-12-26T22:26:26.111Z,100.00
2022-12-26T22:28:56.848Z,100.00
2022-12-26T22:31:31.787Z,100.00
2022-12-26T22:34:04.380Z,100.00
2022-12-26T22:36:37.431Z,100.00
2022-12-26T22:39:08.096Z,100.00
2022-12-26T22:41:41.224Z,99.99
2022-12-26T22:44:15.782Z,100.00
2022-12-26T22:46:46.198Z,100.00
2022-12-26T22:49:16.620Z,100.00
2022-12-26T22:51:47.041Z,100.00
2022-12-26T22:54:17.368Z,100.00
2022-12-26T22:56:52.375Z,100.00
2022-12-26T22:59:57.860Z,100.00
2022-12-26T23:02:14.446Z,100.00
2022-12-26T23:04:45.848Z,100.00
2022-12-26T23:07:18.281Z,100.00
2022-12-26T23:09:49.192Z,100.00
2022-12-26T23:12:35.922Z,100.00
2022-12-26T23:15:07.731Z,100.00
2022-12-26T23:17:54.197Z,98.89
2022-12-26T23:20:39.400Z,98.60
2022-12-26T23:23:10.662Z,98.27
2022-12-26T23:25:41.179Z,98.66
2022-12-26T23:28:27.807Z,96.75
2022-12-26T23:30:59.016Z,95.49
2022-12-26T23:33:29.401Z,95.28
2022-12-26T23:35:59.809Z,93.92
2022-12-26T23:38:30.341Z,92.91
2022-12-26T23:41:01.968Z,93.41
2022-12-26T23:43:35.460Z,92.78
2022-12-26T23:46:12.681Z,93.45
2022-12-26T23:48:43.068Z,94.13
2022-12-26T23:51:13.411Z,94.63
2022-12-26T23:53:43.849Z,95.16
2022-12-26T23:56:14.378Z,95.17
2022-12-26T23:58:47.769Z,95.28
